Las Torres de Cotillas, Spain
Current Conditions -  °F | °C
As of 10:00 PM on Saturday 22 Nov 2014 (Local Time) from LELC Reporting Station
Clear Clear  
Wind Chill: 64°   Ceiling: Unl
Heat Index: 64°   Visibility: 4mi
Dew Point: 63°   Wind: 6mph
Humidity: 94%   Direction: 30°NNE
Pressure: 29.97"   Gusts: NA
Location:  38.03°N, 1.24°W
Report Text: LELC 222100Z 03005KT 6000 NSC 18/17 Q1015 NOSIG
Loading
Personal Weather Stations






























Interactive Weather Map New forecast layout! Learn more

10-Day Weather Forecast

Advertisements
Track Severe Weather on mobile